Time;durP1;ratioP1;P1;durP2;ratioP2;P2;SDS_P1;SDS_P2;PMS_P1;PMS_P2;Temp;Humidity;BMP_temperature;BMP_pressure;BME280_temperature;BME280_humidity;BME280_pressure;Samples;Min_cycle;Max_cycle;Signal;HPM_P1;HPM_P2
2020/12/19 00:01:30;0.00;0.00;0.62;0.00;0.00;0.62;1.90;1.60;;;22.40;30.30;;;;;;2238291;62;20372;-66
2020/12/19 00:04:15;0.00;0.00;0.62;0.00;0.00;0.62;1.63;1.33;;;22.40;30.30;;;;;;2238060;62;20751;-69
2020/12/19 00:06:59;0.00;0.00;0.62;0.00;0.00;0.62;1.70;1.30;;;22.40;30.30;;;;;;2237949;62;20735;-68
2020/12/19 00:09:44;0.00;0.00;0.62;0.00;0.00;0.62;1.70;1.40;;;22.40;30.20;;;;;;2238175;62;20372;-68
2020/12/19 00:12:29;0.00;0.00;0.62;0.00;0.00;0.62;1.83;1.43;;;22.40;30.30;;;;;;2237946;62;20584;-68
2020/12/19 00:15:15;0.00;0.00;0.62;0.00;0.00;0.62;2.10;1.90;;;22.40;30.20;;;;;;2238335;62;20618;-69
2020/12/19 00:18:00;0.00;0.00;0.62;0.00;0.00;0.62;1.73;1.33;;;22.40;30.20;;;;;;2238192;62;20371;-71
2020/12/19 00:20:44;0.00;0.00;0.62;0.00;0.00;0.62;2.43;1.50;;;22.40;30.20;;;;;;2237954;62;20404;-69
2020/12/19 00:23:29;0.00;0.00;0.62;0.00;0.00;0.62;2.03;1.37;;;22.40;30.20;;;;;;2238185;62;20408;-67
2020/12/19 00:26:14;0.00;0.00;0.62;0.00;0.00;0.62;1.70;1.30;;;22.40;30.20;;;;;;2237978;62;20469;-70
2020/12/19 00:28:58;0.00;0.00;0.62;0.00;0.00;0.62;2.90;2.13;;;22.40;30.20;;;;;;2237971;62;20371;-69
2020/12/19 00:31:44;0.00;0.00;0.62;0.00;0.00;0.62;1.50;1.30;;;22.40;30.20;;;;;;2238163;62;20442;-67
2020/12/19 00:34:29;0.00;0.00;0.62;0.00;0.00;0.62;1.70;1.30;;;22.40;30.20;;;;;;2237968;62;20489;-70
2020/12/19 00:37:14;0.00;0.00;0.62;0.00;0.00;0.62;1.70;1.40;;;22.40;30.20;;;;;;2238144;62;20432;-71
2020/12/19 00:39:59;0.00;0.00;0.62;0.00;0.00;0.62;1.97;1.77;;;22.40;30.20;;;;;;2238157;62;20719;-69
2020/12/19 00:42:44;0.00;0.00;0.62;0.00;0.00;0.62;2.13;1.67;;;22.40;30.20;;;;;;2237879;62;20416;-70
2020/12/19 00:45:29;0.00;0.00;0.62;0.00;0.00;0.62;1.83;1.47;;;22.40;30.20;;;;;;2237954;62;20395;-70
2020/12/19 00:48:15;0.00;0.00;0.62;0.00;0.00;0.62;2.10;1.60;;;22.40;30.10;;;;;;2238125;62;20415;-70
2020/12/19 00:50:59;0.00;0.00;0.62;0.00;0.00;0.62;2.67;1.80;;;22.40;30.20;;;;;;2237879;62;20489;-70
2020/12/19 00:53:45;0.00;0.00;0.62;0.00;0.00;0.62;2.57;1.20;;;22.40;30.20;;;;;;2238073;62;20395;-66
2020/12/19 00:56:30;0.00;0.00;0.62;0.00;0.00;0.62;1.67;1.30;;;22.30;30.10;;;;;;2237896;62;20489;-69
2020/12/19 00:59:14;0.00;0.00;0.62;0.00;0.00;0.62;1.97;1.67;;;22.30;30.10;;;;;;2238043;62;20380;-69
2020/12/19 01:01:59;0.00;0.00;0.62;0.00;0.00;0.62;1.73;1.60;;;22.40;30.20;;;;;;2238084;62;20392;-66
2020/12/19 01:04:44;0.00;0.00;0.62;0.00;0.00;0.62;1.80;1.50;;;22.40;30.10;;;;;;2237657;62;20522;-71
2020/12/19 01:07:30;0.00;0.00;0.62;0.00;0.00;0.62;2.33;1.90;;;22.30;30.00;;;;;;2237914;62;20406;-68
2020/12/19 01:10:15;0.00;0.00;0.62;0.00;0.00;0.62;2.07;1.77;;;22.30;30.00;;;;;;2238057;62;20372;-70
2020/12/19 01:12:59;0.00;0.00;0.62;0.00;0.00;0.62;2.33;1.77;;;22.30;30.00;;;;;;2237805;62;20389;-69
2020/12/19 01:15:44;0.00;0.00;0.62;0.00;0.00;0.62;1.87;1.63;;;22.30;30.00;;;;;;2237839;62;20383;-67
2020/12/19 01:18:29;0.00;0.00;0.62;0.00;0.00;0.62;1.83;1.63;;;22.30;30.00;;;;;;2237975;62;20371;-70
2020/12/19 01:21:18;0.00;0.00;0.62;0.00;0.00;0.62;2.37;1.53;;;22.30;30.00;;;;;;2237734;62;20728;-71
2020/12/19 01:24:03;0.00;0.00;0.62;0.00;0.00;0.62;2.00;1.37;;;22.30;30.00;;;;;;2237943;62;20464;-67
2020/12/19 01:26:48;0.00;0.00;0.62;0.00;0.00;0.62;2.03;1.83;;;22.30;30.00;;;;;;2237689;62;20482;-68
2020/12/19 01:29:32;0.00;0.00;0.62;0.00;0.00;0.62;2.27;1.60;;;22.30;30.00;;;;;;2237983;62;20368;-68
2020/12/19 01:32:17;0.00;0.00;0.62;0.00;0.00;0.62;2.57;2.07;;;22.30;30.00;;;;;;2237976;62;20368;-68
2020/12/19 01:35:02;0.00;0.00;0.62;0.00;0.00;0.62;1.93;1.50;;;22.30;30.00;;;;;;2237652;62;20432;-71
2020/12/19 01:37:47;0.00;0.00;0.62;0.00;0.00;0.62;1.60;1.20;;;22.30;30.00;;;;;;2237953;62;20376;-68
2020/12/19 01:40:32;0.00;0.00;0.62;0.00;0.00;0.62;1.93;1.50;;;22.30;30.00;;;;;;2237995;62;20367;-69
2020/12/19 01:43:17;0.00;0.00;0.62;0.00;0.00;0.62;1.63;1.47;;;22.30;30.00;;;;;;2237707;62;20368;-68
2020/12/19 01:46:01;0.00;0.00;0.62;0.00;0.00;0.62;2.00;1.60;;;22.30;30.00;;;;;;2237812;62;20448;-67
2020/12/19 01:48:46;0.00;0.00;0.62;0.00;0.00;0.62;1.50;1.40;;;22.30;30.00;;;;;;2237726;62;20367;-68
2020/12/19 01:51:31;0.00;0.00;0.62;0.00;0.00;0.62;2.20;1.63;;;22.20;30.00;;;;;;2237916;62;20379;-67
2020/12/19 01:54:17;0.00;0.00;0.62;0.00;0.00;0.62;2.00;1.70;;;22.30;30.10;;;;;;2237817;62;20380;-69
2020/12/19 01:57:03;0.00;0.00;0.62;0.00;0.00;0.62;2.10;1.23;;;22.20;30.00;;;;;;2237572;62;20848;-67
2020/12/19 01:59:48;0.00;0.00;0.62;0.00;0.00;0.62;2.10;1.60;;;22.20;30.00;;;;;;2237607;62;20364;-69
2020/12/19 02:02:32;0.00;0.00;0.62;0.00;0.00;0.62;2.17;1.43;;;22.20;30.00;;;;;;2237928;62;20777;-67
2020/12/19 02:05:16;0.00;0.00;0.62;0.00;0.00;0.62;1.77;1.53;;;22.20;30.00;;;;;;2237485;62;20419;-69
2020/12/19 02:08:02;0.00;0.00;0.62;0.00;0.00;0.62;1.93;1.73;;;22.20;30.00;;;;;;2237866;62;20801;-69
2020/12/19 02:10:48;0.00;0.00;0.62;0.00;0.00;0.62;1.50;1.40;;;22.20;30.00;;;;;;2237642;62;20371;-69
2020/12/19 02:13:32;0.00;0.00;0.62;0.00;0.00;0.62;1.93;1.30;;;22.20;30.00;;;;;;2237904;62;20477;-69
2020/12/19 02:16:18;0.00;0.00;0.62;0.00;0.00;0.62;1.40;1.20;;;22.20;30.00;;;;;;2237810;62;20396;-66
2020/12/19 02:19:12;0.00;0.00;0.62;0.00;0.00;0.62;1.70;1.47;;;22.20;30.00;;;;;;2237607;62;20383;-69
2020/12/19 02:21:57;0.00;0.00;0.62;0.00;0.00;0.62;2.40;1.43;;;22.20;30.00;;;;;;2237903;62;20392;-68
2020/12/19 02:24:43;0.00;0.00;0.62;0.00;0.00;0.62;1.73;1.40;;;22.20;30.10;;;;;;2237719;62;20743;-70
2020/12/19 02:27:28;0.00;0.00;0.62;0.00;0.00;0.62;3.63;3.17;;;22.20;30.10;;;;;;2237544;62;20411;-69
2020/12/19 02:30:13;0.00;0.00;0.62;0.00;0.00;0.62;4.23;3.37;;;22.20;29.90;;;;;;2237828;62;20440;-70
2020/12/19 02:32:58;0.00;0.00;0.62;0.00;0.00;0.62;3.97;3.57;;;22.20;29.70;;;;;;2237694;62;20409;-69
2020/12/19 02:35:42;0.00;0.00;0.62;0.00;0.00;0.62;4.33;3.80;;;22.20;29.50;;;;;;2238998;62;20394;-70
2020/12/19 02:38:27;0.00;0.00;0.62;0.00;0.00;0.62;3.57;3.17;;;22.10;29.30;;;;;;2239055;62;20421;-69
2020/12/19 02:41:12;0.00;0.00;0.62;0.00;0.00;0.62;4.90;4.17;;;22.10;29.30;;;;;;2238820;62;20480;-69
2020/12/19 02:43:57;0.00;0.00;0.62;0.00;0.00;0.62;4.77;4.00;;;22.10;29.20;;;;;;2239072;62;20392;-70
2020/12/19 02:46:43;0.00;0.00;0.62;0.00;0.00;0.62;4.33;3.80;;;22.00;29.10;;;;;;2239018;62;20389;-69
2020/12/19 02:49:27;0.00;0.00;0.62;0.00;0.00;0.62;4.63;4.13;;;21.90;28.90;;;;;;2238814;62;20371;-69
2020/12/19 02:52:12;0.00;0.00;0.62;0.00;0.00;0.62;4.30;3.87;;;21.90;28.90;;;;;;2239078;62;20448;-69
2020/12/19 02:54:57;0.00;0.00;0.62;0.00;0.00;0.62;5.47;4.80;;;21.80;28.80;;;;;;2238936;62;20735;-70
2020/12/19 02:57:42;0.00;0.00;0.62;0.00;0.00;0.62;4.93;4.27;;;21.70;28.70;;;;;;2238839;62;20382;-70
2020/12/19 03:00:27;0.00;0.00;0.62;0.00;0.00;0.62;5.50;4.50;;;21.70;29.30;;;;;;2238762;62;20437;-69
2020/12/19 03:03:11;0.00;0.00;0.62;0.00;0.00;0.62;5.00;4.50;;;21.60;28.80;;;;;;2238875;62;20371;-69
2020/12/19 03:05:56;0.00;0.00;0.62;0.00;0.00;0.62;4.87;4.37;;;21.60;28.80;;;;;;2238992;62;20641;-70
2020/12/19 03:08:40;0.00;0.00;0.62;0.00;0.00;0.62;5.30;4.80;;;21.50;28.80;;;;;;2239063;62;20448;-69
2020/12/19 03:11:25;0.00;0.00;0.62;0.00;0.00;0.62;5.20;4.10;;;21.50;28.80;;;;;;2238845;62;20370;-69
2020/12/19 03:14:10;0.00;0.00;0.62;0.00;0.00;0.62;4.57;4.07;;;21.40;28.80;;;;;;2238556;62;20359;-69
2020/12/19 03:16:55;0.00;0.00;0.62;0.00;0.00;0.62;3.30;2.97;;;21.40;28.80;;;;;;2239030;62;20467;-69
2020/12/19 03:19:39;0.00;0.00;0.62;0.00;0.00;0.62;3.73;3.33;;;21.40;28.90;;;;;;2238841;62;20720;-68
2020/12/19 03:22:24;0.00;0.00;0.62;0.00;0.00;0.62;5.60;4.80;;;21.30;28.90;;;;;;2239010;62;20388;-69
2020/12/19 03:25:08;0.00;0.00;0.62;0.00;0.00;0.62;5.10;4.60;;;21.30;28.90;;;;;;2238655;62;20443;-70
2020/12/19 03:27:54;0.00;0.00;0.62;0.00;0.00;0.62;4.83;4.07;;;21.30;28.80;;;;;;2239030;62;20383;-70
2020/12/19 03:30:40;0.00;0.00;0.62;0.00;0.00;0.62;4.53;4.13;;;21.20;28.70;;;;;;2238988;62;20368;-70
2020/12/19 03:33:25;0.00;0.00;0.62;0.00;0.00;0.62;5.03;4.53;;;21.20;28.80;;;;;;2238784;62;20594;-70
2020/12/19 03:36:09;0.00;0.00;0.62;0.00;0.00;0.62;5.13;4.63;;;21.10;28.70;;;;;;2238915;62;20615;-70
2020/12/19 03:38:54;0.00;0.00;0.62;0.00;0.00;0.62;5.10;4.40;;;21.10;28.60;;;;;;2238989;62;20430;-70
2020/12/19 03:41:38;0.00;0.00;0.62;0.00;0.00;0.62;5.17;4.37;;;21.10;28.60;;;;;;2239012;62;20363;-70
2020/12/19 03:44:23;0.00;0.00;0.62;0.00;0.00;0.62;5.77;4.80;;;21.00;28.50;;;;;;2238763;62;20395;-70
2020/12/19 03:47:09;0.00;0.00;0.62;0.00;0.00;0.62;7.30;4.77;;;20.90;28.40;;;;;;2238105;62;20383;-69
2020/12/19 03:49:54;0.00;0.00;0.62;0.00;0.00;0.62;6.20;5.37;;;20.90;28.40;;;;;;2238529;62;20386;-69
2020/12/19 03:52:38;0.00;0.00;0.62;0.00;0.00;0.62;7.30;5.40;;;20.80;28.30;;;;;;2238478;62;20415;-71
2020/12/19 03:55:23;0.00;0.00;0.62;0.00;0.00;0.62;7.03;5.90;;;20.70;28.30;;;;;;2238114;62;20433;-70
2020/12/19 03:58:08;0.00;0.00;0.62;0.00;0.00;0.62;5.93;5.33;;;20.70;28.30;;;;;;2238423;62;20415;-69
2020/12/19 04:00:52;0.00;0.00;0.62;0.00;0.00;0.62;6.60;5.90;;;20.60;28.30;;;;;;2238485;62;20412;-69
2020/12/19 04:03:37;0.00;0.00;0.62;0.00;0.00;0.62;5.83;5.30;;;20.50;28.30;;;;;;2238216;62;20368;-71
2020/12/19 04:06:22;0.00;0.00;0.62;0.00;0.00;0.62;5.93;5.20;;;20.50;28.30;;;;;;2238288;62;20611;-71
2020/12/19 04:09:07;0.00;0.00;0.62;0.00;0.00;0.62;4.87;4.47;;;20.40;28.40;;;;;;2238397;62;20367;-71
2020/12/19 04:11:52;0.00;0.00;0.62;0.00;0.00;0.62;6.10;5.50;;;20.40;28.50;;;;;;2238422;62;20428;-71
2020/12/19 04:14:42;0.00;0.00;0.62;0.00;0.00;0.62;5.17;4.00;;;20.30;28.50;;;;;;2238323;62;20400;-71
2020/12/19 04:17:27;0.00;0.00;0.62;0.00;0.00;0.62;6.90;5.23;;;20.30;28.60;;;;;;2238184;62;20443;-70
2020/12/19 04:20:12;0.00;0.00;0.62;0.00;0.00;0.62;6.73;5.10;;;20.30;28.70;;;;;;2238423;62;20596;-69
2020/12/19 04:22:57;0.00;0.00;0.62;0.00;0.00;0.62;6.40;4.80;;;20.30;28.80;;;;;;2238419;62;20693;-69
2020/12/19 04:25:41;0.00;0.00;0.62;0.00;0.00;0.62;5.77;4.97;;;20.20;28.70;;;;;;2238013;62;20423;-69
2020/12/19 04:28:26;0.00;0.00;0.62;0.00;0.00;0.62;4.67;4.27;;;20.20;28.80;;;;;;2238365;62;20588;-70
2020/12/19 04:31:11;0.00;0.00;0.62;0.00;0.00;0.62;5.87;5.03;;;20.20;28.70;;;;;;2238028;62;20360;-71
2020/12/19 04:33:56;0.00;0.00;0.62;0.00;0.00;0.62;5.97;5.30;;;20.20;28.80;;;;;;2238374;62;20388;-70
2020/12/19 04:36:41;0.00;0.00;0.62;0.00;0.00;0.62;5.17;4.67;;;20.20;28.70;;;;;;2238275;62;20384;-69
2020/12/19 04:39:27;0.00;0.00;0.62;0.00;0.00;0.62;6.23;5.63;;;20.20;28.70;;;;;;2238129;62;20372;-70
2020/12/19 04:42:12;0.00;0.00;0.62;0.00;0.00;0.62;5.60;5.00;;;20.20;28.70;;;;;;2238322;62;20678;-70
2020/12/19 04:44:57;0.00;0.00;0.62;0.00;0.00;0.62;5.47;4.87;;;20.20;28.60;;;;;;2238239;62;20420;-70
2020/12/19 04:47:42;0.00;0.00;0.62;0.00;0.00;0.62;6.53;5.47;;;20.10;28.60;;;;;;2238033;62;20599;-70
2020/12/19 04:50:27;0.00;0.00;0.62;0.00;0.00;0.62;7.40;5.77;;;20.10;28.60;;;;;;2238299;62;20724;-68
2020/12/19 04:53:18;0.00;0.00;0.62;0.00;0.00;0.62;6.07;5.47;;;20.10;28.50;;;;;;2238317;62;20720;-69
2020/12/19 04:56:05;0.00;0.00;0.62;0.00;0.00;0.62;6.70;5.97;;;20.00;28.50;;;;;;2238165;62;20513;-68
2020/12/19 04:58:53;0.00;0.00;0.62;0.00;0.00;0.62;9.50;6.67;;;20.00;28.50;;;;;;2238213;62;20399;-70
2020/12/19 05:01:38;0.00;0.00;0.62;0.00;0.00;0.62;6.53;5.93;;;19.90;28.50;;;;;;2238058;62;20372;-71
2020/12/19 05:04:23;0.00;0.00;0.62;0.00;0.00;0.62;8.30;5.83;;;19.90;28.50;;;;;;2238153;62;20476;-70
2020/12/19 05:07:10;0.00;0.00;0.62;0.00;0.00;0.62;5.37;4.87;;;19.90;28.60;;;;;;2237826;62;20457;-70
2020/12/19 05:09:56;0.00;0.00;0.62;0.00;0.00;0.62;7.40;6.40;;;19.80;28.60;;;;;;2237972;62;20627;-71
2020/12/19 05:12:40;0.00;0.00;0.62;0.00;0.00;0.62;5.93;5.33;;;19.80;28.60;;;;;;2238236;62;20464;-69
2020/12/19 05:15:25;0.00;0.00;0.62;0.00;0.00;0.62;6.23;5.33;;;19.80;28.70;;;;;;2238110;62;20608;-70
2020/12/19 05:18:10;0.00;0.00;0.62;0.00;0.00;0.62;6.40;5.20;;;19.80;28.70;;;;;;2238138;62;20368;-69
2020/12/19 05:20:55;0.00;0.00;0.62;0.00;0.00;0.62;7.00;6.30;;;19.70;28.70;;;;;;2238260;62;20412;-69
2020/12/19 05:23:42;0.00;0.00;0.62;0.00;0.00;0.62;5.37;4.87;;;19.70;28.80;;;;;;2237882;62;20368;-70
2020/12/19 05:26:29;0.00;0.00;0.62;0.00;0.00;0.62;7.07;6.37;;;19.70;28.80;;;;;;2237687;62;20392;-71
2020/12/19 05:29:14;0.00;0.00;0.62;0.00;0.00;0.62;6.20;5.60;;;19.70;28.80;;;;;;2238213;62;20372;-69
2020/12/19 05:32:00;0.00;0.00;0.62;0.00;0.00;0.62;5.40;4.90;;;19.70;29.30;;;;;;2237892;62;20448;-69
2020/12/19 05:34:48;0.00;0.00;0.62;0.00;0.00;0.62;6.60;5.97;;;19.70;28.80;;;;;;2238057;62;20744;-69
2020/12/19 05:37:33;0.00;0.00;0.62;0.00;0.00;0.62;6.73;5.63;;;19.70;28.80;;;;;;2238121;62;20413;-69
2020/12/19 05:40:18;0.00;0.00;0.62;0.00;0.00;0.62;6.87;5.30;;;19.70;29.40;;;;;;2237999;62;20372;-71
2020/12/19 05:43:03;0.00;0.00;0.62;0.00;0.00;0.62;6.20;5.60;;;19.70;28.90;;;;;;2238131;62;20398;-71
2020/12/19 05:45:48;0.00;0.00;0.62;0.00;0.00;0.62;5.40;4.90;;;19.70;28.90;;;;;;2237720;62;20619;-71
2020/12/19 05:48:33;0.00;0.00;0.62;0.00;0.00;0.62;5.37;4.87;;;19.70;28.90;;;;;;2236933;62;20406;-71
2020/12/19 05:51:19;0.00;0.00;0.62;0.00;0.00;0.62;6.00;5.40;;;19.60;28.80;;;;;;2237554;62;20633;-69
2020/12/19 05:54:06;0.00;0.00;0.62;0.00;0.00;0.62;6.50;5.80;;;19.70;28.90;;;;;;2237708;62;20432;-68
2020/12/19 05:56:53;0.00;0.00;0.62;0.00;0.00;0.62;6.27;5.30;;;19.70;28.90;;;;;;2237873;62;20747;-70
2020/12/19 05:59:38;0.00;0.00;0.62;0.00;0.00;0.62;6.40;5.30;;;19.70;28.90;;;;;;2237862;62;20367;-69
2020/12/19 06:02:24;0.00;0.00;0.62;0.00;0.00;0.62;6.50;5.37;;;19.60;28.80;;;;;;2237939;62;20375;-70
2020/12/19 06:05:11;0.00;0.00;0.62;0.00;0.00;0.62;5.60;4.57;;;19.60;28.90;;;;;;2237813;62;20411;-69
2020/12/19 06:07:58;0.00;0.00;0.62;0.00;0.00;0.62;5.87;5.07;;;19.60;28.90;;;;;;2237571;62;20441;-70
2020/12/19 06:10:42;0.00;0.00;0.62;0.00;0.00;0.62;6.20;5.60;;;19.70;28.90;;;;;;2237910;62;20367;-70
2020/12/19 06:13:28;0.00;0.00;0.62;0.00;0.00;0.62;6.33;4.73;;;19.70;28.90;;;;;;2237916;62;20367;-69
2020/12/19 06:16:17;0.00;0.00;0.62;0.00;0.00;0.62;6.97;6.27;;;19.60;28.80;;;;;;2237524;62;20383;-70
2020/12/19 06:19:13;0.00;0.00;0.62;0.00;0.00;0.62;6.93;5.93;;;19.60;28.80;;;;;;2237882;62;20368;-70
2020/12/19 06:21:59;0.00;0.00;0.62;0.00;0.00;0.62;6.73;6.03;;;19.70;28.80;;;;;;2237899;62;20375;-68
2020/12/19 06:24:45;0.00;0.00;0.62;0.00;0.00;0.62;6.30;5.67;;;19.60;28.80;;;;;;2237661;62;20771;-70
2020/12/19 06:27:41;0.00;0.00;0.62;0.00;0.00;0.62;8.50;5.70;;;19.60;28.80;;;;;;2237852;62;20384;-71
2020/12/19 06:30:30;0.00;0.00;0.62;0.00;0.00;0.62;6.57;5.97;;;19.60;28.80;;;;;;2237617;62;20367;-71
2020/12/19 06:33:16;0.00;0.00;0.62;0.00;0.00;0.62;6.97;6.20;;;19.60;28.80;;;;;;2237872;62;20740;-71
2020/12/19 06:36:12;0.00;0.00;0.62;0.00;0.00;0.62;7.40;6.53;;;19.60;28.70;;;;;;2237740;62;20387;-71
2020/12/19 06:39:07;0.00;0.00;0.62;0.00;0.00;0.62;8.50;6.60;;;19.60;28.70;;;;;;2237504;62;20416;-70
2020/12/19 06:41:53;0.00;0.00;0.62;0.00;0.00;0.62;6.60;5.90;;;19.60;28.70;;;;;;2237857;62;20373;-69
2020/12/19 06:44:38;0.00;0.00;0.62;0.00;0.00;0.62;7.53;6.47;;;19.50;28.60;;;;;;2237410;62;20436;-70
2020/12/19 06:47:22;0.00;0.00;0.62;0.00;0.00;0.62;7.97;7.17;;;19.50;28.60;;;;;;2237815;62;20660;-69
2020/12/19 06:50:08;0.00;0.00;0.62;0.00;0.00;0.62;8.03;7.17;;;19.50;28.60;;;;;;2237811;62;20436;-69
2020/12/19 06:52:55;0.00;0.00;0.62;0.00;0.00;0.62;7.50;6.80;;;19.50;28.60;;;;;;2237538;62;20485;-70
2020/12/19 06:55:40;0.00;0.00;0.62;0.00;0.00;0.62;9.70;8.33;;;19.40;28.50;;;;;;2237553;62;20383;-70
2020/12/19 06:58:33;0.00;0.00;0.62;0.00;0.00;0.62;10.00;7.80;;;19.40;28.50;;;;;;2237762;62;20383;-70
2020/12/19 07:01:30;0.00;0.00;0.62;0.00;0.00;0.62;9.53;7.93;;;19.40;28.50;;;;;;2237583;62;20368;-70
2020/12/19 07:04:32;0.00;0.00;0.62;0.00;0.00;0.62;10.30;7.70;;;19.40;28.50;;;;;;2237618;62;20388;-70
2020/12/19 07:07:24;0.00;0.00;0.62;0.00;0.00;0.62;8.73;7.83;;;19.30;28.90;;;;;;2237518;62;20466;-69
2020/12/19 07:10:09;0.00;0.00;0.62;0.00;0.00;0.62;8.90;7.93;;;19.20;28.40;;;;;;2237768;62;20364;-69
2020/12/19 07:12:53;0.00;0.00;0.62;0.00;0.00;0.62;9.77;8.40;;;19.20;28.40;;;;;;2237862;62;20363;-70
2020/12/19 07:15:43;0.00;0.00;0.62;0.00;0.00;0.62;8.90;8.00;;;19.20;28.40;;;;;;2237357;62;20594;-70
2020/12/19 07:18:31;0.00;0.00;0.62;0.00;0.00;0.62;8.77;7.87;;;19.20;28.40;;;;;;2237308;62;20628;-69
2020/12/19 07:21:16;0.00;0.00;0.62;0.00;0.00;0.62;9.13;8.17;;;19.10;28.40;;;;;;2238430;62;20412;-70
2020/12/19 07:24:01;0.00;0.00;0.62;0.00;0.00;0.62;8.93;7.93;;;19.10;28.40;;;;;;2238329;62;20493;-70
2020/12/19 07:26:47;0.00;0.00;0.62;0.00;0.00;0.62;9.20;8.23;;;19.10;28.50;;;;;;2238382;62;20395;-68
2020/12/19 07:29:32;0.00;0.00;0.62;0.00;0.00;0.62;8.80;8.00;;;19.00;28.40;;;;;;2238140;62;20399;-70
2020/12/19 07:32:17;0.00;0.00;0.62;0.00;0.00;0.62;8.87;7.87;;;19.00;28.40;;;;;;2238566;62;20403;-70
2020/12/19 07:35:01;0.00;0.00;0.62;0.00;0.00;0.62;10.60;8.13;;;18.90;28.40;;;;;;2238227;62;20367;-70
2020/12/19 07:37:49;0.00;0.00;0.62;0.00;0.00;0.62;9.67;8.67;;;18.90;28.40;;;;;;2238124;62;20411;-69
2020/12/19 07:40:35;0.00;0.00;0.62;0.00;0.00;0.62;10.23;9.13;;;18.90;28.40;;;;;;2238363;62;20702;-70
2020/12/19 07:43:22;0.00;0.00;0.62;0.00;0.00;0.62;8.43;7.53;;;18.90;28.40;;;;;;2238363;62;20371;-69
2020/12/19 07:46:07;0.00;0.00;0.62;0.00;0.00;0.62;9.30;8.30;;;18.80;28.30;;;;;;2238050;62;20802;-70
2020/12/19 07:48:53;0.00;0.00;0.62;0.00;0.00;0.62;9.70;8.00;;;18.80;28.30;;;;;;2238334;62;20445;-68
2020/12/19 07:51:38;0.00;0.00;0.62;0.00;0.00;0.62;9.00;8.03;;;18.80;28.40;;;;;;2237364;62;20465;-67
2020/12/19 07:54:25;0.00;0.00;0.62;0.00;0.00;0.62;11.73;8.77;;;18.70;28.40;;;;;;2238181;62;20419;-69
2020/12/19 07:57:11;0.00;0.00;0.62;0.00;0.00;0.62;9.30;7.70;;;18.70;28.40;;;;;;2238210;62;20796;-68
2020/12/19 07:59:56;0.00;0.00;0.62;0.00;0.00;0.62;10.10;8.73;;;18.70;28.50;;;;;;2237998;62;20407;-68
2020/12/19 08:02:41;0.00;0.00;0.62;0.00;0.00;0.62;9.73;8.27;;;18.70;28.50;;;;;;2238274;62;20368;-68
2020/12/19 08:05:25;0.00;0.00;0.62;0.00;0.00;0.62;9.75;8.20;;;18.60;28.50;;;;;;2238028;62;20449;-68
2020/12/19 08:08:11;0.00;0.00;0.62;0.00;0.00;0.62;11.63;8.47;;;18.60;28.50;;;;;;2237721;62;20283;-69
2020/12/19 08:11:01;0.00;0.00;0.62;0.00;0.00;0.62;10.00;8.90;;;18.60;28.50;;;;;;2238153;62;20368;-68
2020/12/19 08:13:49;0.00;0.00;0.62;0.00;0.00;0.62;10.00;9.00;;;18.60;28.50;;;;;;2237967;62;20399;-70
2020/12/19 08:16:33;0.00;0.00;0.62;0.00;0.00;0.62;9.63;8.13;;;18.50;28.40;;;;;;2238095;62;20396;-68
2020/12/19 08:19:27;0.00;0.00;0.62;0.00;0.00;0.62;9.87;8.83;;;18.50;28.50;;;;;;2238268;62;20574;-69
2020/12/19 08:22:12;0.00;0.00;0.62;0.00;0.00;0.62;10.60;8.50;;;18.50;28.50;;;;;;2237941;62;20432;-68
2020/12/19 08:24:57;0.00;0.00;0.62;0.00;0.00;0.62;10.83;8.47;;;18.50;28.50;;;;;;2238008;62;20395;-67
2020/12/19 08:27:43;0.00;0.00;0.62;0.00;0.00;0.62;8.20;7.40;;;18.50;28.50;;;;;;2237767;62;20701;-68
2020/12/19 08:30:30;0.00;0.00;0.62;0.00;0.00;0.62;9.97;8.97;;;18.50;28.60;;;;;;2237949;62;20360;-69
2020/12/19 08:33:16;0.00;0.00;0.62;0.00;0.00;0.62;9.30;8.20;;;18.40;28.50;;;;;;2238097;62;20412;-69
2020/12/19 08:36:00;0.00;0.00;0.62;0.00;0.00;0.62;9.43;8.33;;;18.40;28.50;;;;;;2237748;62;20427;-70
2020/12/19 08:38:45;0.00;0.00;0.62;0.00;0.00;0.62;10.40;8.60;;;18.40;28.60;;;;;;2238156;62;20371;-69
2020/12/19 08:41:30;0.00;0.00;0.62;0.00;0.00;0.62;8.70;7.80;;;18.40;28.60;;;;;;2238121;62;20581;-70
2020/12/19 08:44:24;0.00;0.00;0.62;0.00;0.00;0.62;7.63;6.80;;;18.40;28.70;;;;;;2237673;62;20462;-70
2020/12/19 08:47:14;0.00;0.00;0.62;0.00;0.00;0.62;9.00;6.97;;;18.40;28.80;;;;;;2238099;62;20419;-70
2020/12/19 08:50:02;0.00;0.00;0.62;0.00;0.00;0.62;6.97;6.23;;;18.50;28.90;;;;;;2238055;62;20368;-69
2020/12/19 08:52:47;0.00;0.00;0.62;0.00;0.00;0.62;10.27;7.77;;;18.50;28.90;;;;;;2237994;62;20732;-71
2020/12/19 08:55:32;0.00;0.00;0.62;0.00;0.00;0.62;8.60;7.00;;;18.50;28.80;;;;;;2237945;62;20772;-67
2020/12/19 08:58:22;0.00;0.00;0.62;0.00;0.00;0.62;8.10;7.10;;;18.50;28.80;;;;;;2237799;62;20367;-69
2020/12/19 09:01:15;0.00;0.00;0.62;0.00;0.00;0.62;10.63;7.50;;;18.50;28.80;;;;;;2238105;62;20380;-69
2020/12/19 09:04:09;0.00;0.00;0.62;0.00;0.00;0.62;8.90;6.50;;;18.50;28.80;;;;;;2238147;62;20495;-68
2020/12/19 09:06:54;0.00;0.00;0.62;0.00;0.00;0.62;8.90;8.00;;;18.60;29.30;;;;;;2237792;62;20404;-65
2020/12/19 09:09:39;0.00;0.00;0.62;0.00;0.00;0.62;9.47;7.87;;;18.60;28.80;;;;;;2238091;62;20466;-64
2020/12/19 09:12:23;0.00;0.00;0.62;0.00;0.00;0.62;9.10;7.47;;;18.60;28.70;;;;;;2238104;62;20517;-66
2020/12/19 09:15:17;0.00;0.00;0.62;0.00;0.00;0.62;7.00;6.03;;;18.60;28.70;;;;;;2237967;62;20400;-67
2020/12/19 09:18:20;0.00;0.00;0.62;0.00;0.00;0.62;9.33;7.80;;;18.60;28.70;;;;;;2238098;62;20360;-67
2020/12/19 09:21:07;0.00;0.00;0.62;0.00;0.00;0.62;7.23;6.53;;;18.70;28.70;;;;;;2237762;62;20383;-66
2020/12/19 09:23:53;0.00;0.00;0.62;0.00;0.00;0.62;8.67;7.23;;;18.70;28.70;;;;;;2238150;62;20376;-67
2020/12/19 09:26:43;0.00;0.00;0.62;0.00;0.00;0.62;8.37;6.90;;;18.70;29.30;;;;;;2238022;62;20756;-67
2020/12/19 09:29:28;0.00;0.00;0.62;0.00;0.00;0.62;9.27;7.67;;;18.70;28.70;;;;;;2237411;62;20440;-66
2020/12/19 09:32:13;0.00;0.00;0.62;0.00;0.00;0.62;8.33;7.03;;;18.80;28.80;;;;;;2237409;62;20719;-67
2020/12/19 09:34:58;0.00;0.00;0.62;0.00;0.00;0.62;7.40;6.70;;;18.80;28.80;;;;;;2237575;62;20531;-68
2020/12/19 09:37:43;0.00;0.00;0.62;0.00;0.00;0.62;7.57;6.77;;;18.80;28.80;;;;;;2237968;62;20395;-70
2020/12/19 09:40:29;0.00;0.00;0.62;0.00;0.00;0.62;7.83;6.53;;;18.90;28.90;;;;;;2237906;62;20372;-69
2020/12/19 09:43:14;0.00;0.00;0.62;0.00;0.00;0.62;6.80;6.10;;;18.90;28.90;;;;;;2237882;62;20408;-68
2020/12/19 09:45:58;0.00;0.00;0.62;0.00;0.00;0.62;8.20;7.00;;;18.90;28.80;;;;;;2237827;62;20404;-68
2020/12/19 09:48:43;0.00;0.00;0.62;0.00;0.00;0.62;6.90;6.20;;;19.00;28.90;;;;;;2238100;62;20623;-68
2020/12/19 09:51:30;0.00;0.00;0.62;0.00;0.00;0.62;7.47;6.77;;;19.00;28.80;;;;;;2237504;62;20371;-69
2020/12/19 09:54:15;0.00;0.00;0.62;0.00;0.00;0.62;7.87;7.07;;;19.10;28.80;;;;;;2237588;62;20360;-68
2020/12/19 09:57:00;0.00;0.00;0.62;0.00;0.00;0.62;6.70;6.00;;;19.10;28.70;;;;;;2237754;62;20419;-67
2020/12/19 09:59:46;0.00;0.00;0.62;0.00;0.00;0.62;6.50;5.90;;;19.10;28.70;;;;;;2238130;62;20732;-67
2020/12/19 10:02:31;0.00;0.00;0.62;0.00;0.00;0.62;6.43;5.10;;;19.20;28.80;;;;;;2238079;62;20368;-65
2020/12/19 10:05:16;0.00;0.00;0.62;0.00;0.00;0.62;6.63;4.93;;;19.20;28.80;;;;;;2237668;62;20399;-66
2020/12/19 10:08:01;0.00;0.00;0.62;0.00;0.00;0.62;6.17;4.90;;;19.20;28.90;;;;;;2238049;62;20372;-65
2020/12/19 10:10:47;0.00;0.00;0.62;0.00;0.00;0.62;5.83;4.70;;;19.30;29.00;;;;;;2238047;62;20720;-65
2020/12/19 10:13:31;0.00;0.00;0.62;0.00;0.00;0.62;5.00;4.50;;;19.30;29.00;;;;;;2237793;62;20493;-68
2020/12/19 10:16:16;0.00;0.00;0.62;0.00;0.00;0.62;4.30;3.90;;;19.40;29.20;;;;;;2237901;62;20451;-72
2020/12/19 10:19:00;0.00;0.00;0.62;0.00;0.00;0.62;3.30;3.00;;;19.40;29.80;;;;;;2237951;62;20411;-68
2020/12/19 10:21:45;0.00;0.00;0.62;0.00;0.00;0.62;3.60;3.17;;;19.50;29.30;;;;;;2237576;62;20583;-66
2020/12/19 10:24:30;0.00;0.00;0.62;0.00;0.00;0.62;5.60;3.20;;;19.60;29.40;;;;;;2237641;62;20395;-68
2020/12/19 10:27:16;0.00;0.00;0.62;0.00;0.00;0.62;3.10;2.80;;;19.60;29.40;;;;;;2239868;62;20608;-66
2020/12/19 10:30:00;0.00;0.00;0.62;0.00;0.00;0.62;3.40;2.97;;;19.70;29.50;;;;;;2237520;62;20712;-68
2020/12/19 10:32:45;0.00;0.00;0.62;0.00;0.00;0.62;3.73;3.17;;;19.80;30.00;;;;;;2237577;62;20364;-72
2020/12/19 10:35:30;0.00;0.00;0.62;0.00;0.00;0.62;3.50;2.87;;;19.80;29.60;;;;;;2237191;62;20590;-66
2020/12/19 10:38:15;0.00;0.00;0.62;0.00;0.00;0.62;3.67;2.97;;;19.80;29.60;;;;;;2237485;62;20645;-68
2020/12/19 10:40:59;0.00;0.00;0.62;0.00;0.00;0.62;2.50;2.03;;;19.90;29.70;;;;;;2237869;62;20408;-69
2020/12/19 10:43:45;0.00;0.00;0.62;0.00;0.00;0.62;3.73;3.00;;;20.00;29.80;;;;;;2237780;62;20367;-70
2020/12/19 10:46:31;0.00;0.00;0.62;0.00;0.00;0.62;2.90;2.63;;;20.10;29.90;;;;;;2237445;62;20485;-68
2020/12/19 10:49:15;0.00;0.00;0.62;0.00;0.00;0.62;3.53;2.27;;;20.20;30.00;;;;;;2237665;62;20368;-67
2020/12/19 10:52:03;0.00;0.00;0.62;0.00;0.00;0.62;2.70;2.27;;;20.20;30.00;;;;;;2237826;62;20645;-67
2020/12/19 10:54:48;0.00;0.00;0.62;0.00;0.00;0.62;3.00;2.70;;;20.30;30.20;;;;;;2237930;62;20359;-67